Bookmark and Share
Track history (hours):
 

St Charlotte

Last reported at 2014-Mar-25 23:13 UTC. Time now 2014-Apr-19 02:11 UTC.
Position N 49°37' W 000°26'.
Warning: this ship's position is 24 days out of date.

Length 129 m; draft 8.3 m.

Type: Ship. MMSI: 228331700.

NotesDate/timePositionNaut miles runAvg speedWind from/ knotsBaromVisibWave heightAir tempDewpointWater temp
2014-Mar-25 23:13N 49°37' W 000°26'913.1
2014-Mar-25 22:33N 49°33' W 000°14'9 8.7
2014-Mar-25 21:33N 49°29' W 000°02'0 0.0
2014-Mar-25 20:30N 49°29' W 000°02'0 0.2
2014-Mar-25 19:33N 49°29' W 000°01'7 7.1
2014-Mar-25 18:33N 49°28' E 000°09'1 0.8
2014-Mar-25 17:31N 49°29' E 000°11'0 0.4
2014-Mar-25 16:31N 49°29' E 000°11'0 0.0
2014-Mar-25 15:31N 49°29' E 000°11'0 0.0
2014-Mar-25 14:31N 49°29' E 000°11'0 0.0
2014-Mar-25 13:31N 49°29' E 000°11'0 0.0
2014-Mar-25 12:31N 49°29' E 000°11'0 0.0
2014-Mar-25 11:31N 49°29' E 000°11'0 0.0
2014-Mar-25 10:31N 49°29' E 000°11'0 0.0
2014-Mar-25 09:31N 49°29' E 000°11'0 0.0
2014-Mar-25 08:28N 49°29' E 000°11'0 0.0
2014-Mar-25 07:28N 49°29' E 000°11'0 0.0
2014-Mar-25 06:31N 49°29' E 000°11'0 0.0
2014-Mar-25 05:31N 49°29' E 000°11'0 0.0
2014-Mar-25 04:31N 49°29' E 000°11'0 0.0
2014-Mar-25 03:31N 49°29' E 000°11'0 0.0
2014-Mar-25 02:31N 49°29' E 000°11'0 0.0
2014-Mar-25 01:31N 49°29' E 000°11'14 1.6
2014-Mar-24 17:01N 49°38' W 000°05'49311.1
2014-Mar-22 20:32N 56°33' E 007°17'12110.1
2014-Mar-22 08:33N 57°45' E 010°16'1211.6
2014-Mar-22 07:33N 57°49' E 010°37'1111.2
2014-Mar-22 06:33N 57°44' E 010°55'1212.2
2014-Mar-22 05:33N 57°35' E 011°12'1212.2
2014-Mar-22 04:33N 57°26' E 011°27'1212.3
2014-Mar-22 03:33N 57°15' E 011°35'1512.1
2014-Mar-22 02:21N 57°01' E 011°45'1012.0
2014-Mar-22 01:33N 56°52' E 011°51'1211.9
2014-Mar-22 00:33N 56°41' E 011°56'1211.8
2014-Mar-21 23:33N 56°29' E 012°01'1211.7
2014-Mar-21 22:33N 56°18' E 012°06'1111.6
2014-Mar-21 21:33N 56°11' E 012°23'1111.2
2014-Mar-21 20:33N 56°04' E 012°38'4 4.0
2014-Mar-21 19:32N 56°01' E 012°43'0 0.0
2014-Mar-21 18:32N 56°01' E 012°43'0 0.0
2014-Mar-21 17:32N 56°01' E 012°43'0 0.0
2014-Mar-21 16:26N 56°01' E 012°43'0 0.0
2014-Mar-21 15:32N 56°01' E 012°43'0 0.0
2014-Mar-21 14:32N 56°01' E 012°43'0 0.0
2014-Mar-21 13:32N 56°01' E 012°43'0 0.0
2014-Mar-21 12:32N 56°01' E 012°43'0 0.0
2014-Mar-21 11:32N 56°01' E 012°43'0 0.0
2014-Mar-21 10:32N 56°01' E 012°43'0 0.0
2014-Mar-21 09:32N 56°01' E 012°43'0 0.0
2014-Mar-21 08:32N 56°01' E 012°43'0 0.0
2014-Mar-21 07:32N 56°01' E 012°43'0 0.0
2014-Mar-21 06:32N 56°01' E 012°43'0 0.0
2014-Mar-21 05:32N 56°01' E 012°43'0 0.0
2014-Mar-21 04:32N 56°01' E 012°43'0 0.0
2014-Mar-21 03:32N 56°01' E 012°43'0 0.0
2014-Mar-21 02:26N 56°01' E 012°43'0 0.0
2014-Mar-21 01:32N 56°01' E 012°43'0 0.0
2014-Mar-21 00:32N 56°01' E 012°43'0 0.0
2014-Mar-20 23:32N 56°01' E 012°43'0 0.0
2014-Mar-20 22:32N 56°01' E 012°43'0 0.0
2014-Mar-20 21:32N 56°01' E 012°43'0 0.0
2014-Mar-20 20:32N 56°01' E 012°43'1 1.2
2014-Mar-20 19:33N 55°59' E 012°43'9 9.2
2014-Mar-20 18:34N 56°07' E 012°33'1212.2
2014-Mar-20 17:33N 56°12' E 012°13'73 9.1
2014-Mar-20 09:33N 55°10' E 011°04'1511.6
2014-Mar-20 08:13N 54°56' E 010°55'66 6.7
2014-Mar-19 22:26N 54°11' E 009°31'7 8.1
2014-Mar-19 21:32N 54°08' E 009°20'6 6.1
2014-Mar-19 20:33N 54°02' E 009°18'6 6.1
2014-Mar-19 19:33N 53°57' E 009°14'4 4.3
2014-Mar-19 18:33N 53°54' E 009°09'2 1.9
2014-Mar-19 17:33N 53°53' E 009°06'0 0.2
2014-Mar-19 16:32N 53°53' E 009°06'0 0.0
2014-Mar-19 15:32N 53°53' E 009°06'0 0.0
2014-Mar-19 14:32N 53°53' E 009°06'0 0.1
2014-Mar-19 13:33N 53°53' E 009°06'1111.5
2014-Mar-19 12:34N 53°50' E 008°47'1413.9
2014-Mar-19 11:34N 53°59' E 008°28'1313.3
2014-Mar-19 10:33N 53°59' E 008°05'9 9.1
2014-Mar-19 09:33N 53°52' E 007°54'9 8.8
2014-Mar-19 08:33N 53°48' E 008°08'1211.9
2014-Mar-19 07:34N 53°40' E 008°23'1111.0
2014-Mar-19 06:33N 53°31' E 008°33'11 1.5
2014-Mar-18 23:31N 53°21' E 008°30'0 0.0
2014-Mar-18 22:25N 53°21' E 008°30'1 0.0
2014-Mar-17 15:33N 53°21' E 008°30'8 8.2
2014-Mar-17 14:33N 53°29' E 008°30'9 8.6
2014-Mar-17 13:33N 53°38' E 008°27'1413.8
2014-Mar-17 12:33N 53°47' E 008°10'1313.0
2014-Mar-17 11:33N 53°52' E 007°50'1212.0
2014-Mar-17 10:33N 53°54' E 007°30'1212.1
2014-Mar-17 09:33N 53°51' E 007°10'3712.3
2014-Mar-17 06:31N 53°42' E 006°08'1212.8
2014-Mar-17 05:33N 53°38' E 005°49'1312.6
2014-Mar-17 04:33N 53°34' E 005°29'1212.0
2014-Mar-17 03:33N 53°30' E 005°09'1111.3
2014-Mar-17 02:33N 53°27' E 004°51'1010.0
2014-Mar-17 01:33N 53°20' E 004°39'15 9.8
2014-Mar-17 00:04N 53°07' E 004°28'5 9.6
2014-Mar-16 23:33N 53°03' E 004°24'36 8.9
2014-Mar-16 19:33N 52°34' E 003°49'10 9.9
2014-Mar-16 18:33N 52°27' E 003°38'1510.8
2014-Mar-16 17:11N 52°17' E 003°21'711.4
2014-Mar-16 16:32N 52°11' E 003°12'3912.2
2014-Mar-16 13:19N 51°41' E 002°31'1012.5
2014-Mar-16 12:33N 51°34' E 002°22'1212.4
2014-Mar-16 11:33N 51°23' E 002°11'1212.4
2014-Mar-16 10:32N 51°13' E 002°01'1312.7
2014-Mar-16 09:33N 51°06' E 001°44'1110.9
2014-Mar-16 08:33N 50°59' E 001°31'13 9.7
2014-Mar-16 07:11N 50°47' E 001°22'6 9.8
2014-Mar-16 06:33N 50°41' E 001°18'1411.2
2014-Mar-16 05:16N 50°32' E 001°00'811.4
2014-Mar-16 04:33N 50°29' E 000°49'1211.5
2014-Mar-16 03:33N 50°26' E 000°31'1111.4
2014-Mar-16 02:33N 50°23' E 000°14'2711.2
2014-Mar-16 00:11N 50°16' W 000°26'711.1
2014-Mar-15 23:31N 50°14' W 000°37'  

Dump ship's entire track history

sailing weather and tide predictions

St Charlotte — FWBM — position and weather